sensor_id;sensor_type;location;lat;lon;timestamp;P1;durP1;ratioP1;P2;durP2;ratioP2
20491;SDS011;10404;51.468;6.762;2023-06-22T00:00:29;5.63;;;5.13;;
20491;SDS011;10404;51.468;6.762;2023-06-22T00:02:55;5.25;;;4.75;;
20491;SDS011;10404;51.468;6.762;2023-06-22T00:05:20;5.07;;;4.57;;
20491;SDS011;10404;51.468;6.762;2023-06-22T00:07:46;5.55;;;5.05;;
20491;SDS011;10404;51.468;6.762;2023-06-22T00:10:11;4.32;;;3.50;;
20491;SDS011;10404;51.468;6.762;2023-06-22T00:12:37;5.13;;;4.63;;
20491;SDS011;10404;51.468;6.762;2023-06-22T00:15:03;4.85;;;4.45;;
20491;SDS011;10404;51.468;6.762;2023-06-22T00:17:29;5.00;;;4.45;;
20491;SDS011;10404;51.468;6.762;2023-06-22T00:19:54;5.18;;;4.78;;
20491;SDS011;10404;51.468;6.762;2023-06-22T00:22:21;5.10;;;4.63;;
20491;SDS011;10404;51.468;6.762;2023-06-22T00:24:53;5.03;;;4.22;;
20491;SDS011;10404;51.468;6.762;2023-06-22T00:27:20;5.00;;;4.10;;
20491;SDS011;10404;51.468;6.762;2023-06-22T00:29:45;5.18;;;4.53;;
20491;SDS011;10404;51.468;6.762;2023-06-22T00:32:12;5.68;;;5.13;;
20491;SDS011;10404;51.468;6.762;2023-06-22T00:34:38;5.80;;;5.18;;
20491;SDS011;10404;51.468;6.762;2023-06-22T00:37:03;5.57;;;5.07;;
20491;SDS011;10404;51.468;6.762;2023-06-22T00:39:29;7.28;;;5.70;;
20491;SDS011;10404;51.468;6.762;2023-06-22T00:41:55;5.43;;;4.93;;
20491;SDS011;10404;51.468;6.762;2023-06-22T00:44:20;5.30;;;4.75;;
20491;SDS011;10404;51.468;6.762;2023-06-22T00:46:46;4.88;;;4.45;;
20491;SDS011;10404;51.468;6.762;2023-06-22T00:49:12;4.65;;;4.22;;
20491;SDS011;10404;51.468;6.762;2023-06-22T00:51:37;5.88;;;5.18;;
20491;SDS011;10404;51.468;6.762;2023-06-22T00:54:04;5.57;;;5.07;;
20491;SDS011;10404;51.468;6.762;2023-06-22T00:56:31;5.53;;;4.80;;
20491;SDS011;10404;51.468;6.762;2023-06-22T00:58:58;6.18;;;5.68;;
20491;SDS011;10404;51.468;6.762;2023-06-22T01:01:24;5.32;;;4.82;;
20491;SDS011;10404;51.468;6.762;2023-06-22T01:03:50;5.82;;;5.22;;
20491;SDS011;10404;51.468;6.762;2023-06-22T01:06:19;6.15;;;5.72;;
20491;SDS011;10404;51.468;6.762;2023-06-22T01:09:02;5.13;;;4.65;;
20491;SDS011;10404;51.468;6.762;2023-06-22T01:11:41;5.72;;;5.22;;
20491;SDS011;10404;51.468;6.762;2023-06-22T01:14:18;5.15;;;4.65;;
20491;SDS011;10404;51.468;6.762;2023-06-22T01:16:49;6.88;;;5.03;;
20491;SDS011;10404;51.468;6.762;2023-06-22T01:21:53;5.25;;;4.80;;
20491;SDS011;10404;51.468;6.762;2023-06-22T01:24:22;5.32;;;4.82;;
20491;SDS011;10404;51.468;6.762;2023-06-22T01:29:48;5.70;;;4.97;;
20491;SDS011;10404;51.468;6.762;2023-06-22T01:32:26;6.13;;;5.53;;
20491;SDS011;10404;51.468;6.762;2023-06-22T01:34:57;4.57;;;4.15;;
20491;SDS011;10404;51.468;6.762;2023-06-22T01:37:25;5.65;;;5.20;;
20491;SDS011;10404;51.468;6.762;2023-06-22T01:39:51;5.38;;;4.88;;
20491;SDS011;10404;51.468;6.762;2023-06-22T01:42:18;5.72;;;5.22;;
20491;SDS011;10404;51.468;6.762;2023-06-22T01:44:44;5.80;;;5.30;;
20491;SDS011;10404;51.468;6.762;2023-06-22T01:47:10;5.50;;;5.05;;
20491;SDS011;10404;51.468;6.762;2023-06-22T01:49:38;6.18;;;4.70;;
20491;SDS011;10404;51.468;6.762;2023-06-22T01:52:06;5.75;;;5.25;;
20491;SDS011;10404;51.468;6.762;2023-06-22T01:54:32;5.50;;;5.00;;
20491;SDS011;10404;51.468;6.762;2023-06-22T01:56:58;6.05;;;5.03;;
20491;SDS011;10404;51.468;6.762;2023-06-22T01:59:25;5.07;;;4.57;;
20491;SDS011;10404;51.468;6.762;2023-06-22T02:01:58;4.35;;;3.95;;
20491;SDS011;10404;51.468;6.762;2023-06-22T02:04:35;5.80;;;5.25;;
20491;SDS011;10404;51.468;6.762;2023-06-22T02:07:22;5.18;;;4.63;;
20491;SDS011;10404;51.468;6.762;2023-06-22T02:09:49;5.57;;;5.07;;
20491;SDS011;10404;51.468;6.762;2023-06-22T02:14:46;5.70;;;5.20;;
20491;SDS011;10404;51.468;6.762;2023-06-22T02:17:12;4.97;;;4.47;;
20491;SDS011;10404;51.468;6.762;2023-06-22T02:19:40;5.50;;;5.00;;
20491;SDS011;10404;51.468;6.762;2023-06-22T02:22:06;6.47;;;5.97;;
20491;SDS011;10404;51.468;6.762;2023-06-22T02:24:32;6.40;;;5.90;;
20491;SDS011;10404;51.468;6.762;2023-06-22T02:26:58;6.10;;;5.53;;
20491;SDS011;10404;51.468;6.762;2023-06-22T02:29:24;6.07;;;5.55;;
20491;SDS011;10404;51.468;6.762;2023-06-22T02:31:51;5.40;;;4.93;;
20491;SDS011;10404;51.468;6.762;2023-06-22T02:34:17;4.95;;;4.47;;
20491;SDS011;10404;51.468;6.762;2023-06-22T02:36:46;4.80;;;4.38;;
20491;SDS011;10404;51.468;6.762;2023-06-22T02:39:22;6.03;;;5.50;;
20491;SDS011;10404;51.468;6.762;2023-06-22T02:41:49;5.35;;;4.82;;
20491;SDS011;10404;51.468;6.762;2023-06-22T02:44:16;6.72;;;5.22;;
20491;SDS011;10404;51.468;6.762;2023-06-22T02:46:42;5.63;;;5.13;;
20491;SDS011;10404;51.468;6.762;2023-06-22T02:49:09;6.55;;;5.93;;
20491;SDS011;10404;51.468;6.762;2023-06-22T02:51:35;6.10;;;5.60;;
20491;SDS011;10404;51.468;6.762;2023-06-22T02:54:00;5.72;;;4.75;;
20491;SDS011;10404;51.468;6.762;2023-06-22T02:56:28;6.00;;;5.47;;
20491;SDS011;10404;51.468;6.762;2023-06-22T02:58:54;6.72;;;5.50;;
20491;SDS011;10404;51.468;6.762;2023-06-22T03:01:25;6.15;;;5.60;;
20491;SDS011;10404;51.468;6.762;2023-06-22T03:03:53;6.32;;;5.80;;
20491;SDS011;10404;51.468;6.762;2023-06-22T03:06:19;5.80;;;5.22;;
20491;SDS011;10404;51.468;6.762;2023-06-22T03:08:48;6.50;;;5.90;;
20491;SDS011;10404;51.468;6.762;2023-06-22T03:11:15;7.28;;;6.68;;
20491;SDS011;10404;51.468;6.762;2023-06-22T03:13:41;6.72;;;6.00;;
20491;SDS011;10404;51.468;6.762;2023-06-22T03:16:06;6.55;;;5.97;;
20491;SDS011;10404;51.468;6.762;2023-06-22T03:18:32;6.50;;;5.85;;
20491;SDS011;10404;51.468;6.762;2023-06-22T03:20:57;6.18;;;5.57;;
20491;SDS011;10404;51.468;6.762;2023-06-22T03:23:23;6.53;;;5.95;;
20491;SDS011;10404;51.468;6.762;2023-06-22T03:25:49;5.68;;;5.18;;
20491;SDS011;10404;51.468;6.762;2023-06-22T03:28:14;5.68;;;5.18;;
20491;SDS011;10404;51.468;6.762;2023-06-22T03:30:41;6.32;;;5.82;;
20491;SDS011;10404;51.468;6.762;2023-06-22T03:33:06;6.53;;;5.93;;
20491;SDS011;10404;51.468;6.762;2023-06-22T03:35:32;7.00;;;6.40;;
20491;SDS011;10404;51.468;6.762;2023-06-22T03:37:57;7.00;;;6.05;;
20491;SDS011;10404;51.468;6.762;2023-06-22T03:40:23;6.70;;;6.00;;
20491;SDS011;10404;51.468;6.762;2023-06-22T03:42:50;7.60;;;6.93;;
20491;SDS011;10404;51.468;6.762;2023-06-22T03:45:15;6.63;;;5.85;;
20491;SDS011;10404;51.468;6.762;2023-06-22T03:47:41;6.53;;;5.90;;
20491;SDS011;10404;51.468;6.762;2023-06-22T03:50:07;7.20;;;6.47;;
20491;SDS011;10404;51.468;6.762;2023-06-22T03:52:33;7.18;;;6.22;;
20491;SDS011;10404;51.468;6.762;2023-06-22T03:54:58;7.22;;;6.55;;
20491;SDS011;10404;51.468;6.762;2023-06-22T03:57:24;7.72;;;7.03;;
20491;SDS011;10404;51.468;6.762;2023-06-22T03:59:49;6.47;;;5.88;;
20491;SDS011;10404;51.468;6.762;2023-06-22T04:02:15;6.82;;;6.18;;
20491;SDS011;10404;51.468;6.762;2023-06-22T04:04:41;7.53;;;6.80;;
20491;SDS011;10404;51.468;6.762;2023-06-22T04:07:06;6.82;;;6.22;;
20491;SDS011;10404;51.468;6.762;2023-06-22T04:09:32;7.38;;;6.68;;
20491;SDS011;10404;51.468;6.762;2023-06-22T04:11:58;7.35;;;6.60;;
20491;SDS011;10404;51.468;6.762;2023-06-22T04:14:24;7.07;;;6.47;;
20491;SDS011;10404;51.468;6.762;2023-06-22T04:16:49;7.47;;;6.78;;
20491;SDS011;10404;51.468;6.762;2023-06-22T04:19:15;6.82;;;6.25;;
20491;SDS011;10404;51.468;6.762;2023-06-22T04:21:43;7.35;;;6.63;;
20491;SDS011;10404;51.468;6.762;2023-06-22T04:24:09;8.52;;;7.72;;
20491;SDS011;10404;51.468;6.762;2023-06-22T04:29:06;7.22;;;6.53;;
20491;SDS011;10404;51.468;6.762;2023-06-22T04:31:33;7.28;;;6.57;;
20491;SDS011;10404;51.468;6.762;2023-06-22T04:34:02;7.47;;;6.78;;
20491;SDS011;10404;51.468;6.762;2023-06-22T04:36:39;8.75;;;7.57;;
20491;SDS011;10404;51.468;6.762;2023-06-22T04:39:06;8.13;;;7.15;;
20491;SDS011;10404;51.468;6.762;2023-06-22T04:46:34;8.25;;;7.38;;
20491;SDS011;10404;51.468;6.762;2023-06-22T04:49:03;7.97;;;7.28;;
20491;SDS011;10404;51.468;6.762;2023-06-22T04:53:57;7.50;;;6.75;;
20491;SDS011;10404;51.468;6.762;2023-06-22T04:56:25;7.85;;;7.05;;
20491;SDS011;10404;51.468;6.762;2023-06-22T04:58:53;6.88;;;6.28;;
20491;SDS011;10404;51.468;6.762;2023-06-22T05:01:22;7.35;;;6.43;;
20491;SDS011;10404;51.468;6.762;2023-06-22T05:03:49;7.78;;;7.07;;
20491;SDS011;10404;51.468;6.762;2023-06-22T05:06:14;8.57;;;6.85;;
20491;SDS011;10404;51.468;6.762;2023-06-22T05:08:40;7.68;;;6.90;;
20491;SDS011;10404;51.468;6.762;2023-06-22T05:11:06;8.05;;;7.35;;
20491;SDS011;10404;51.468;6.762;2023-06-22T05:13:32;7.72;;;6.97;;
20491;SDS011;10404;51.468;6.762;2023-06-22T05:15:57;7.97;;;7.20;;
20491;SDS011;10404;51.468;6.762;2023-06-22T05:18:30;8.13;;;7.28;;
20491;SDS011;10404;51.468;6.762;2023-06-22T05:20:57;7.95;;;6.97;;
20491;SDS011;10404;51.468;6.762;2023-06-22T05:23:23;8.63;;;7.72;;
20491;SDS011;10404;51.468;6.762;2023-06-22T05:25:49;7.90;;;7.07;;
20491;SDS011;10404;51.468;6.762;2023-06-22T05:28:14;8.10;;;7.30;;
20491;SDS011;10404;51.468;6.762;2023-06-22T05:30:41;8.35;;;7.65;;
20491;SDS011;10404;51.468;6.762;2023-06-22T05:33:06;8.70;;;7.90;;
20491;SDS011;10404;51.468;6.762;2023-06-22T05:35:32;8.88;;;8.10;;
20491;SDS011;10404;51.468;6.762;2023-06-22T05:37:57;9.65;;;8.63;;
20491;SDS011;10404;51.468;6.762;2023-06-22T05:40:23;9.18;;;8.30;;
20491;SDS011;10404;51.468;6.762;2023-06-22T05:42:49;8.95;;;8.02;;
20491;SDS011;10404;51.468;6.762;2023-06-22T05:45:14;9.05;;;8.10;;
20491;SDS011;10404;51.468;6.762;2023-06-22T05:47:40;8.45;;;7.68;;
20491;SDS011;10404;51.468;6.762;2023-06-22T05:50:05;9.13;;;8.15;;
20491;SDS011;10404;51.468;6.762;2023-06-22T05:52:33;9.25;;;8.30;;
20491;SDS011;10404;51.468;6.762;2023-06-22T05:54:59;8.43;;;7.70;;
20491;SDS011;10404;51.468;6.762;2023-06-22T05:57:25;10.82;;;9.80;;
20491;SDS011;10404;51.468;6.762;2023-06-22T05:59:50;8.25;;;7.38;;
20491;SDS011;10404;51.468;6.762;2023-06-22T06:02:16;8.77;;;7.95;;
20491;SDS011;10404;51.468;6.762;2023-06-22T06:04:42;8.85;;;8.05;;
20491;SDS011;10404;51.468;6.762;2023-06-22T06:07:08;9.80;;;7.50;;
20491;SDS011;10404;51.468;6.762;2023-06-22T06:09:33;8.05;;;7.18;;
20491;SDS011;10404;51.468;6.762;2023-06-22T06:11:59;8.75;;;7.95;;
20491;SDS011;10404;51.468;6.762;2023-06-22T06:14:24;9.27;;;8.38;;
20491;SDS011;10404;51.468;6.762;2023-06-22T06:16:50;8.88;;;8.07;;
20491;SDS011;10404;51.468;6.762;2023-06-22T06:19:16;10.32;;;8.68;;
20491;SDS011;10404;51.468;6.762;2023-06-22T06:21:42;8.13;;;7.32;;
20491;SDS011;10404;51.468;6.762;2023-06-22T06:24:07;8.77;;;7.88;;
20491;SDS011;10404;51.468;6.762;2023-06-22T06:26:33;10.25;;;9.35;;
20491;SDS011;10404;51.468;6.762;2023-06-22T06:28:59;9.43;;;8.52;;
20491;SDS011;10404;51.468;6.762;2023-06-22T06:31:26;9.45;;;8.50;;
20491;SDS011;10404;51.468;6.762;2023-06-22T06:33:55;10.82;;;9.68;;
20491;SDS011;10404;51.468;6.762;2023-06-22T06:36:21;9.52;;;8.48;;
20491;SDS011;10404;51.468;6.762;2023-06-22T06:38:46;10.90;;;9.88;;
20491;SDS011;10404;51.468;6.762;2023-06-22T06:41:13;10.75;;;9.63;;
20491;SDS011;10404;51.468;6.762;2023-06-22T06:43:40;10.80;;;9.77;;
20491;SDS011;10404;51.468;6.762;2023-06-22T06:46:07;12.00;;;10.18;;
20491;SDS011;10404;51.468;6.762;2023-06-22T06:48:32;12.40;;;10.35;;
20491;SDS011;10404;51.468;6.762;2023-06-22T06:50:58;11.93;;;9.35;;
20491;SDS011;10404;51.468;6.762;2023-06-22T06:53:24;11.38;;;10.27;;
20491;SDS011;10404;51.468;6.762;2023-06-22T06:55:49;11.10;;;10.00;;
20491;SDS011;10404;51.468;6.762;2023-06-22T06:58:15;11.13;;;10.07;;
20491;SDS011;10404;51.468;6.762;2023-06-22T07:00:41;11.50;;;10.30;;
20491;SDS011;10404;51.468;6.762;2023-06-22T07:03:08;12.18;;;11.00;;
20491;SDS011;10404;51.468;6.762;2023-06-22T07:05:34;11.77;;;10.68;;
20491;SDS011;10404;51.468;6.762;2023-06-22T07:08:00;11.15;;;10.15;;
20491;SDS011;10404;51.468;6.762;2023-06-22T07:10:26;12.82;;;11.60;;
20491;SDS011;10404;51.468;6.762;2023-06-22T07:12:53;12.02;;;10.77;;
20491;SDS011;10404;51.468;6.762;2023-06-22T07:15:18;12.13;;;11.02;;
20491;SDS011;10404;51.468;6.762;2023-06-22T07:17:44;11.45;;;10.38;;
20491;SDS011;10404;51.468;6.762;2023-06-22T07:20:10;11.98;;;10.77;;
20491;SDS011;10404;51.468;6.762;2023-06-22T07:22:39;10.93;;;9.88;;
20491;SDS011;10404;51.468;6.762;2023-06-22T07:25:05;10.98;;;9.88;;
20491;SDS011;10404;51.468;6.762;2023-06-22T07:30:23;10.38;;;9.38;;
20491;SDS011;10404;51.468;6.762;2023-06-22T07:32:48;11.02;;;9.85;;
20491;SDS011;10404;51.468;6.762;2023-06-22T07:35:14;10.65;;;9.68;;
20491;SDS011;10404;51.468;6.762;2023-06-22T07:37:41;12.48;;;11.30;;
20491;SDS011;10404;51.468;6.762;2023-06-22T07:40:07;10.93;;;9.77;;
20491;SDS011;10404;51.468;6.762;2023-06-22T07:42:33;11.45;;;10.45;;
20491;SDS011;10404;51.468;6.762;2023-06-22T07:44:59;12.70;;;11.60;;
20491;SDS011;10404;51.468;6.762;2023-06-22T07:47:25;11.82;;;10.73;;
20491;SDS011;10404;51.468;6.762;2023-06-22T07:49:53;11.75;;;10.70;;
20491;SDS011;10404;51.468;6.762;2023-06-22T07:52:20;11.30;;;10.27;;
20491;SDS011;10404;51.468;6.762;2023-06-22T07:54:46;11.07;;;10.10;;
20491;SDS011;10404;51.468;6.762;2023-06-22T07:57:12;11.93;;;10.70;;
20491;SDS011;10404;51.468;6.762;2023-06-22T07:59:38;11.35;;;10.20;;
20491;SDS011;10404;51.468;6.762;2023-06-22T08:02:04;12.57;;;11.30;;
20491;SDS011;10404;51.468;6.762;2023-06-22T08:04:30;11.98;;;10.77;;
20491;SDS011;10404;51.468;6.762;2023-06-22T08:06:59;11.35;;;9.75;;
20491;SDS011;10404;51.468;6.762;2023-06-22T08:09:27;11.15;;;10.15;;
20491;SDS011;10404;51.468;6.762;2023-06-22T08:11:56;10.48;;;9.38;;
20491;SDS011;10404;51.468;6.762;2023-06-22T08:14:23;10.45;;;9.43;;
20491;SDS011;10404;51.468;6.762;2023-06-22T08:16:50;12.60;;;11.50;;
20491;SDS011;10404;51.468;6.762;2023-06-22T08:19:15;12.65;;;11.55;;
20491;SDS011;10404;51.468;6.762;2023-06-22T08:21:42;11.95;;;10.77;;
20491;SDS011;10404;51.468;6.762;2023-06-22T08:24:07;12.45;;;11.27;;
20491;SDS011;10404;51.468;6.762;2023-06-22T08:26:33;14.30;;;12.88;;
20491;SDS011;10404;51.468;6.762;2023-06-22T08:29:02;11.25;;;10.23;;
20491;SDS011;10404;51.468;6.762;2023-06-22T08:31:28;13.82;;;12.07;;
20491;SDS011;10404;51.468;6.762;2023-06-22T08:33:55;11.85;;;10.75;;
20491;SDS011;10404;51.468;6.762;2023-06-22T08:36:21;13.25;;;11.95;;
20491;SDS011;10404;51.468;6.762;2023-06-22T08:38:46;12.15;;;11.00;;
20491;SDS011;10404;51.468;6.762;2023-06-22T08:41:16;14.65;;;11.68;;
20491;SDS011;10404;51.468;6.762;2023-06-22T08:43:42;13.43;;;12.13;;
20491;SDS011;10404;51.468;6.762;2023-06-22T08:46:09;13.32;;;12.02;;
20491;SDS011;10404;51.468;6.762;2023-06-22T08:48:36;16.00;;;14.50;;
20491;SDS011;10404;51.468;6.762;2023-06-22T08:51:01;13.75;;;12.40;;
20491;SDS011;10404;51.468;6.762;2023-06-22T08:53:28;13.75;;;12.52;;
20491;SDS011;10404;51.468;6.762;2023-06-22T08:55:54;14.10;;;12.90;;
20491;SDS011;10404;51.468;6.762;2023-06-22T08:58:19;12.25;;;11.05;;
20491;SDS011;10404;51.468;6.762;2023-06-22T09:00:46;12.90;;;11.52;;
20491;SDS011;10404;51.468;6.762;2023-06-22T09:03:12;12.23;;;11.13;;
20491;SDS011;10404;51.468;6.762;2023-06-22T09:05:38;12.82;;;11.50;;
20491;SDS011;10404;51.468;6.762;2023-06-22T09:08:04;12.18;;;10.88;;
20491;SDS011;10404;51.468;6.762;2023-06-22T09:10:29;11.70;;;10.55;;
20491;SDS011;10404;51.468;6.762;2023-06-22T09:12:56;11.73;;;10.68;;
20491;SDS011;10404;51.468;6.762;2023-06-22T09:15:22;11.75;;;10.60;;
20491;SDS011;10404;51.468;6.762;2023-06-22T09:17:48;12.02;;;10.80;;
20491;SDS011;10404;51.468;6.762;2023-06-22T09:20:14;13.15;;;11.95;;
20491;SDS011;10404;51.468;6.762;2023-06-22T09:22:40;13.52;;;12.23;;
20491;SDS011;10404;51.468;6.762;2023-06-22T09:25:06;13.27;;;12.02;;
20491;SDS011;10404;51.468;6.762;2023-06-22T09:27:32;14.73;;;13.32;;
20491;SDS011;10404;51.468;6.762;2023-06-22T09:29:58;14.55;;;13.27;;
20491;SDS011;10404;51.468;6.762;2023-06-22T09:32:24;14.48;;;12.98;;
20491;SDS011;10404;51.468;6.762;2023-06-22T09:34:50;15.30;;;13.73;;
20491;SDS011;10404;51.468;6.762;2023-06-22T09:37:16;14.70;;;13.25;;
20491;SDS011;10404;51.468;6.762;2023-06-22T09:39:42;14.57;;;13.07;;
20491;SDS011;10404;51.468;6.762;2023-06-22T09:42:07;15.57;;;14.18;;
20491;SDS011;10404;51.468;6.762;2023-06-22T09:44:33;16.67;;;15.05;;
20491;SDS011;10404;51.468;6.762;2023-06-22T09:46:59;14.18;;;12.88;;
20491;SDS011;10404;51.468;6.762;2023-06-22T09:49:25;15.70;;;12.85;;
20491;SDS011;10404;51.468;6.762;2023-06-22T09:51:51;15.05;;;13.57;;
20491;SDS011;10404;51.468;6.762;2023-06-22T09:54:17;15.57;;;14.07;;
20491;SDS011;10404;51.468;6.762;2023-06-22T09:56:43;15.68;;;14.27;;
20491;SDS011;10404;51.468;6.762;2023-06-22T09:59:09;15.27;;;13.75;;
20491;SDS011;10404;51.468;6.762;2023-06-22T10:01:34;17.52;;;15.80;;
20491;SDS011;10404;51.468;6.762;2023-06-22T10:04:01;15.38;;;13.95;;
20491;SDS011;10404;51.468;6.762;2023-06-22T10:06:27;16.42;;;14.88;;
20491;SDS011;10404;51.468;6.762;2023-06-22T10:08:53;13.90;;;12.48;;
20491;SDS011;10404;51.468;6.762;2023-06-22T10:11:19;15.45;;;14.02;;
20491;SDS011;10404;51.468;6.762;2023-06-22T10:13:44;15.23;;;12.82;;
20491;SDS011;10404;51.468;6.762;2023-06-22T10:16:10;14.85;;;13.35;;
20491;SDS011;10404;51.468;6.762;2023-06-22T10:18:36;14.57;;;13.18;;
20491;SDS011;10404;51.468;6.762;2023-06-22T10:21:01;14.98;;;13.55;;
20491;SDS011;10404;51.468;6.762;2023-06-22T10:23:27;16.33;;;14.93;;
20491;SDS011;10404;51.468;6.762;2023-06-22T10:25:53;13.40;;;12.20;;
20491;SDS011;10404;51.468;6.762;2023-06-22T10:28:18;14.57;;;13.15;;
20491;SDS011;10404;51.468;6.762;2023-06-22T10:30:44;13.07;;;11.77;;
20491;SDS011;10404;51.468;6.762;2023-06-22T10:33:10;13.55;;;12.20;;
20491;SDS011;10404;51.468;6.762;2023-06-22T10:35:37;13.75;;;12.55;;
20491;SDS011;10404;51.468;6.762;2023-06-22T10:38:03;13.77;;;12.43;;
20491;SDS011;10404;51.468;6.762;2023-06-22T10:40:29;14.85;;;13.65;;
20491;SDS011;10404;51.468;6.762;2023-06-22T10:42:55;13.38;;;12.20;;
20491;SDS011;10404;51.468;6.762;2023-06-22T10:45:21;14.48;;;13.15;;
20491;SDS011;10404;51.468;6.762;2023-06-22T10:47:47;12.70;;;11.50;;
20491;SDS011;10404;51.468;6.762;2023-06-22T10:50:12;13.05;;;11.85;;
20491;SDS011;10404;51.468;6.762;2023-06-22T10:52:38;12.82;;;11.60;;
20491;SDS011;10404;51.468;6.762;2023-06-22T10:55:05;14.68;;;13.23;;
20491;SDS011;10404;51.468;6.762;2023-06-22T10:57:31;14.48;;;13.20;;
20491;SDS011;10404;51.468;6.762;2023-06-22T10:59:56;12.93;;;11.82;;
20491;SDS011;10404;51.468;6.762;2023-06-22T11:02:22;12.80;;;11.70;;
20491;SDS011;10404;51.468;6.762;2023-06-22T11:04:49;13.88;;;12.68;;
20491;SDS011;10404;51.468;6.762;2023-06-22T11:07:15;13.20;;;12.10;;
20491;SDS011;10404;51.468;6.762;2023-06-22T11:09:42;13.13;;;12.00;;
20491;SDS011;10404;51.468;6.762;2023-06-22T11:12:08;14.68;;;13.38;;
20491;SDS011;10404;51.468;6.762;2023-06-22T11:14:34;15.73;;;14.38;;
20491;SDS011;10404;51.468;6.762;2023-06-22T11:16:59;13.85;;;12.55;;
20491;SDS011;10404;51.468;6.762;2023-06-22T11:19:25;13.95;;;12.60;;
20491;SDS011;10404;51.468;6.762;2023-06-22T11:21:51;12.75;;;11.65;;
20491;SDS011;10404;51.468;6.762;2023-06-22T11:24:16;12.88;;;11.77;;
20491;SDS011;10404;51.468;6.762;2023-06-22T11:26:42;13.00;;;11.90;;
20491;SDS011;10404;51.468;6.762;2023-06-22T11:29:08;14.00;;;12.70;;
20491;SDS011;10404;51.468;6.762;2023-06-22T11:31:34;13.45;;;12.45;;
20491;SDS011;10404;51.468;6.762;2023-06-22T11:34:00;14.18;;;12.88;;
20491;SDS011;10404;51.468;6.762;2023-06-22T11:36:26;14.15;;;12.98;;
20491;SDS011;10404;51.468;6.762;2023-06-22T11:38:54;12.90;;;11.80;;
20491;SDS011;10404;51.468;6.762;2023-06-22T11:41:19;13.40;;;12.20;;
20491;SDS011;10404;51.468;6.762;2023-06-22T11:43:45;12.10;;;10.98;;
20491;SDS011;10404;51.468;6.762;2023-06-22T11:46:11;13.27;;;12.18;;
20491;SDS011;10404;51.468;6.762;2023-06-22T11:48:36;12.95;;;11.40;;
20491;SDS011;10404;51.468;6.762;2023-06-22T11:51:02;13.25;;;11.98;;
20491;SDS011;10404;51.468;6.762;2023-06-22T11:53:28;13.32;;;12.13;;
20491;SDS011;10404;51.468;6.762;2023-06-22T11:55:54;13.25;;;11.95;;
20491;SDS011;10404;51.468;6.762;2023-06-22T11:58:21;12.93;;;11.82;;
20491;SDS011;10404;51.468;6.762;2023-06-22T12:00:47;12.40;;;11.32;;
20491;SDS011;10404;51.468;6.762;2023-06-22T12:03:13;12.98;;;11.77;;
20491;SDS011;10404;51.468;6.762;2023-06-22T12:05:39;14.43;;;13.00;;
20491;SDS011;10404;51.468;6.762;2023-06-22T12:08:05;11.95;;;10.85;;
20491;SDS011;10404;51.468;6.762;2023-06-22T12:10:31;14.60;;;13.20;;
20491;SDS011;10404;51.468;6.762;2023-06-22T12:12:57;13.77;;;12.52;;
20491;SDS011;10404;51.468;6.762;2023-06-22T12:15:24;14.20;;;12.85;;
20491;SDS011;10404;51.468;6.762;2023-06-22T12:17:51;14.68;;;13.23;;
20491;SDS011;10404;51.468;6.762;2023-06-22T12:20:16;13.00;;;11.80;;
20491;SDS011;10404;51.468;6.762;2023-06-22T12:22:43;13.27;;;11.98;;
20491;SDS011;10404;51.468;6.762;2023-06-22T12:25:08;13.05;;;11.85;;
20491;SDS011;10404;51.468;6.762;2023-06-22T12:27:37;15.27;;;13.98;;
20491;SDS011;10404;51.468;6.762;2023-06-22T12:30:03;16.13;;;14.48;;
20491;SDS011;10404;51.468;6.762;2023-06-22T12:32:29;15.18;;;13.77;;
20491;SDS011;10404;51.468;6.762;2023-06-22T12:34:55;15.35;;;13.85;;
20491;SDS011;10404;51.468;6.762;2023-06-22T12:37:21;17.95;;;16.15;;
20491;SDS011;10404;51.468;6.762;2023-06-22T12:39:47;17.08;;;15.55;;
20491;SDS011;10404;51.468;6.762;2023-06-22T12:42:13;18.23;;;16.33;;
20491;SDS011;10404;51.468;6.762;2023-06-22T12:44:39;18.30;;;16.60;;
20491;SDS011;10404;51.468;6.762;2023-06-22T12:47:05;17.30;;;15.10;;
20491;SDS011;10404;51.468;6.762;2023-06-22T12:49:31;18.50;;;16.75;;
20491;SDS011;10404;51.468;6.762;2023-06-22T12:51:56;20.17;;;18.27;;
20491;SDS011;10404;51.468;6.762;2023-06-22T12:54:22;20.33;;;16.98;;
20491;SDS011;10404;51.468;6.762;2023-06-22T12:56:49;17.30;;;15.57;;
20491;SDS011;10404;51.468;6.762;2023-06-22T12:59:15;18.65;;;16.95;;
20491;SDS011;10404;51.468;6.762;2023-06-22T13:01:42;17.00;;;15.35;;
20491;SDS011;10404;51.468;6.762;2023-06-22T13:04:09;16.40;;;14.70;;
20491;SDS011;10404;51.468;6.762;2023-06-22T13:06:36;21.02;;;18.95;;
20491;SDS011;10404;51.468;6.762;2023-06-22T13:09:01;17.95;;;16.13;;
20491;SDS011;10404;51.468;6.762;2023-06-22T13:11:30;22.33;;;20.08;;
20491;SDS011;10404;51.468;6.762;2023-06-22T13:13:55;21.67;;;19.65;;
20491;SDS011;10404;51.468;6.762;2023-06-22T13:16:21;20.17;;;18.08;;
20491;SDS011;10404;51.468;6.762;2023-06-22T13:18:46;18.65;;;16.75;;
20491;SDS011;10404;51.468;6.762;2023-06-22T13:21:12;19.77;;;17.88;;
20491;SDS011;10404;51.468;6.762;2023-06-22T13:23:39;18.85;;;17.05;;
20491;SDS011;10404;51.468;6.762;2023-06-22T13:26:04;18.52;;;16.63;;
20491;SDS011;10404;51.468;6.762;2023-06-22T13:28:30;19.88;;;17.95;;
20491;SDS011;10404;51.468;6.762;2023-06-22T13:30:56;18.00;;;16.30;;
20491;SDS011;10404;51.468;6.762;2023-06-22T13:33:21;18.75;;;16.85;;
20491;SDS011;10404;51.468;6.762;2023-06-22T13:35:47;19.13;;;17.13;;
20491;SDS011;10404;51.468;6.762;2023-06-22T13:38:12;20.45;;;18.52;;
20491;SDS011;10404;51.468;6.762;2023-06-22T13:40:38;21.05;;;19.05;;
20491;SDS011;10404;51.468;6.762;2023-06-22T13:43:04;20.98;;;18.92;;
20491;SDS011;10404;51.468;6.762;2023-06-22T13:45:30;19.92;;;17.92;;
20491;SDS011;10404;51.468;6.762;2023-06-22T13:47:56;18.95;;;16.92;;
20491;SDS011;10404;51.468;6.762;2023-06-22T13:50:22;19.25;;;17.35;;
20491;SDS011;10404;51.468;6.762;2023-06-22T13:52:48;17.90;;;16.17;;
20491;SDS011;10404;51.468;6.762;2023-06-22T13:55:13;20.42;;;18.52;;
20491;SDS011;10404;51.468;6.762;2023-06-22T13:57:39;20.08;;;18.17;;
20491;SDS011;10404;51.468;6.762;2023-06-22T14:00:06;20.98;;;19.00;;
20491;SDS011;10404;51.468;6.762;2023-06-22T14:02:37;20.48;;;18.58;;
20491;SDS011;10404;51.468;6.762;2023-06-22T14:05:04;21.52;;;19.42;;
20491;SDS011;10404;51.468;6.762;2023-06-22T14:07:31;22.25;;;20.17;;
20491;SDS011;10404;51.468;6.762;2023-06-22T14:09:56;23.63;;;21.33;;
20491;SDS011;10404;51.468;6.762;2023-06-22T14:12:23;25.05;;;22.63;;
20491;SDS011;10404;51.468;6.762;2023-06-22T14:14:49;24.50;;;22.30;;
20491;SDS011;10404;51.468;6.762;2023-06-22T14:17:14;22.20;;;19.98;;
20491;SDS011;10404;51.468;6.762;2023-06-22T14:19:40;22.70;;;20.48;;
20491;SDS011;10404;51.468;6.762;2023-06-22T14:22:06;23.80;;;21.48;;
20491;SDS011;10404;51.468;6.762;2023-06-22T14:24:31;22.13;;;20.13;;
20491;SDS011;10404;51.468;6.762;2023-06-22T14:26:57;22.00;;;19.67;;
20491;SDS011;10404;51.468;6.762;2023-06-22T14:29:23;22.48;;;20.38;;
20491;SDS011;10404;51.468;6.762;2023-06-22T14:31:48;21.45;;;19.48;;
20491;SDS011;10404;51.468;6.762;2023-06-22T14:34:15;22.42;;;20.23;;
20491;SDS011;10404;51.468;6.762;2023-06-22T14:36:41;21.88;;;19.65;;
20491;SDS011;10404;51.468;6.762;2023-06-22T14:39:07;20.63;;;18.60;;
20491;SDS011;10404;51.468;6.762;2023-06-22T14:41:33;21.27;;;19.13;;
20491;SDS011;10404;51.468;6.762;2023-06-22T14:43:58;21.60;;;19.30;;
20491;SDS011;10404;51.468;6.762;2023-06-22T14:46:24;20.52;;;18.38;;
20491;SDS011;10404;51.468;6.762;2023-06-22T14:48:50;23.30;;;21.02;;